Burlington, Iowa
Current Conditions -  °F | °C
As of 12:53 AM on Friday 19 Dec 2014 (Local Time) from KBRL Reporting Station
Overcast Overcast  
Wind Chill: 28°   Ceiling: 4700
Heat Index: 28°   Visibility: 9mi
Dew Point: 23°   Wind: 3mph
Humidity: 81%   Direction: 290°WNW
Pressure: 30.29"   Gusts: NA
Location:  40.81°N, 91.1°W
Report Text: KBRL 190653Z AUTO 29003KT 9SM SCT038 OVC047 M02/M05 A3029 RMK AO2 SLP267 T10221050
Loading
Personal Weather Stations






























Interactive Weather Map New forecast layout! Learn more

10-Day Weather Forecast

Advertisements
Track Severe Weather on mobile